Time;durP1;ratioP1;P1;durP2;ratioP2;P2;SDS_P1;SDS_P2;PMS_P1;PMS_P2;Temp;Humidity;BMP_temperature;BMP_pressure;BME280_temperature;BME280_humidity;BME280_pressure;Samples;Min_cycle;Max_cycle;Signal;HPM_P1;HPM_P2
2023/07/08 00:00:49;;;;;;;8.40;4.63;;;23.30;63.40;;;;;;5073500;28;20481;-79
2023/07/08 00:03:15;;;;;;;8.02;4.18;;;23.30;63.40;;;;;;5074932;28;20016;-80
2023/07/08 00:05:41;;;;;;;9.95;4.90;;;23.30;63.40;;;;;;5075304;28;20601;-79
2023/07/08 00:08:14;;;;;;;9.20;4.60;;;23.30;64.20;;;;;;5074856;28;20033;-79
2023/07/08 00:10:40;;;;;;;6.53;4.05;;;23.30;65.40;;;;;;5074629;28;20020;-80
2023/07/08 00:13:08;;;;;;;8.90;4.93;;;23.30;64.90;;;;;;5076404;28;20023;-79
2023/07/08 00:15:33;;;;;;;9.85;4.70;;;23.10;65.60;;;;;;5074315;28;20032;-79
2023/07/08 00:18:00;;;;;;;9.60;4.57;;;23.10;65.30;;;;;;5076275;28;20028;-80
2023/07/08 00:20:38;;;;;;;9.90;4.90;;;23.10;65.80;;;;;;5075406;28;20453;-81
2023/07/08 00:23:05;;;;;;;8.40;4.00;;;23.10;64.80;;;;;;5075223;28;20029;-81
2023/07/08 00:25:32;;;;;;;12.40;5.07;;;23.00;64.20;;;;;;5073430;28;20056;-81
2023/07/08 00:27:57;;;;;;;8.95;4.80;;;23.10;63.90;;;;;;5075002;28;20115;-80
2023/07/08 00:30:25;;;;;;;7.40;4.38;;;23.10;63.60;;;;;;5074274;28;20059;-80
2023/07/08 00:32:53;;;;;;;8.75;4.85;;;23.10;63.20;;;;;;5075949;28;20069;-81
2023/07/08 00:35:34;;;;;;;8.60;4.65;;;23.10;62.90;;;;;;5074965;28;20027;-81
2023/07/08 00:38:02;;;;;;;10.18;4.45;;;23.20;62.90;;;;;;5055068;28;20139;-81
2023/07/08 00:40:33;;;;;;;8.48;4.75;;;23.20;63.00;;;;;;5053784;28;20078;-80
2023/07/08 00:43:03;;;;;;;10.82;5.30;;;23.10;63.00;;;;;;5055663;28;20032;-80
2023/07/08 00:45:35;;;;;;;8.77;4.70;;;23.20;63.00;;;;;;5073091;28;20044;-81
2023/07/08 00:48:10;;;;;;;8.88;5.30;;;23.10;63.10;;;;;;5075812;28;20047;-80
2023/07/08 00:50:36;;;;;;;8.30;4.70;;;23.10;63.20;;;;;;5074464;28;20165;-82
2023/07/08 00:53:25;;;;;;;7.65;4.38;;;23.10;63.40;;;;;;5075104;28;20066;-82
2023/07/08 00:55:54;;;;;;;9.63;4.57;;;23.10;63.50;;;;;;5074514;28;20369;-81
2023/07/08 00:58:21;;;;;;;9.45;4.80;;;23.10;63.60;;;;;;5074632;28;20033;-82
2023/07/08 01:00:49;;;;;;;7.70;4.72;;;23.00;64.00;;;;;;5073917;28;20025;-81
2023/07/08 01:03:16;;;;;;;14.27;5.03;;;23.00;64.50;;;;;;5074365;28;20074;-81
2023/07/08 01:05:43;;;;;;;8.07;4.32;;;23.00;64.90;;;;;;5073860;28;20462;-81
2023/07/08 01:08:09;;;;;;;8.35;4.68;;;23.00;65.40;;;;;;5075809;28;20031;-81
2023/07/08 01:10:58;;;;;;;9.23;4.65;;;23.00;65.40;;;;;;5072595;28;20020;-80
2023/07/08 01:13:24;;;;;;;8.88;4.63;;;22.90;65.80;;;;;;5072437;28;20111;-81
2023/07/08 01:15:50;;;;;;;8.68;4.82;;;22.80;65.50;;;;;;5074242;28;20433;-81
2023/07/08 01:18:20;;;;;;;12.90;4.53;;;22.80;65.90;;;;;;5073952;28;20020;-81
2023/07/08 01:20:49;;;;;;;9.77;4.67;;;22.70;66.10;;;;;;5072944;28;20024;-81
2023/07/08 01:23:16;;;;;;;9.85;5.18;;;22.60;66.20;;;;;;5074412;28;20245;-81
2023/07/08 01:25:44;;;;;;;11.70;4.75;;;22.60;65.90;;;;;;5072620;28;20460;-80
2023/07/08 01:28:10;;;;;;;10.90;4.97;;;22.60;65.90;;;;;;5074684;28;20384;-80
2023/07/08 01:30:36;;;;;;;9.55;4.93;;;22.60;66.20;;;;;;5072981;28;20020;-81
2023/07/08 01:33:07;;;;;;;11.43;4.95;;;22.60;65.40;;;;;;5073974;28;20043;-80
2023/07/08 01:35:33;;;;;;;8.52;4.25;;;22.60;65.20;;;;;;5073243;28;20431;-82
2023/07/08 01:38:01;;;;;;;10.35;4.85;;;22.60;65.60;;;;;;5073554;28;20031;-81
2023/07/08 01:40:33;;;;;;;8.05;4.40;;;22.50;66.80;;;;;;5072724;28;20024;-82
2023/07/08 01:43:00;;;;;;;12.88;4.97;;;22.40;66.20;;;;;;5073493;28;20073;-81
2023/07/08 01:45:30;;;;;;;12.38;4.68;;;22.50;67.50;;;;;;5072995;28;20131;-82
2023/07/08 01:48:12;;;;;;;9.45;4.40;;;22.40;67.70;;;;;;5073604;28;20036;-81
2023/07/08 01:50:59;;;;;;;11.50;4.93;;;22.40;67.80;;;;;;5072071;28;20036;-80
2023/07/08 01:53:34;;;;;;;12.52;5.13;;;22.30;68.50;;;;;;5073687;28;20021;-82
2023/07/08 01:56:00;;;;;;;6.85;4.03;;;22.20;68.00;;;;;;5072614;28;20048;-79
2023/07/08 01:58:26;;;;;;;10.85;4.93;;;22.20;68.40;;;;;;5072751;28;20460;-82
2023/07/08 02:00:52;;;;;;;7.95;4.65;;;22.10;68.20;;;;;;5072260;28;20119;-80
2023/07/08 02:03:18;;;;;;;7.47;4.38;;;22.10;68.00;;;;;;5074168;28;20163;-80
2023/07/08 02:05:43;;;;;;;8.43;5.00;;;22.10;68.60;;;;;;5072170;28;20114;-79
2023/07/08 02:08:09;;;;;;;8.80;4.50;;;22.10;68.80;;;;;;5073045;28;20028;-79
2023/07/08 02:10:36;;;;;;;7.50;4.53;;;22.00;68.70;;;;;;5072571;28;20040;-79
2023/07/08 02:13:02;;;;;;;9.32;4.40;;;22.00;68.80;;;;;;5072656;28;20480;-80
2023/07/08 02:15:27;;;;;;;9.10;4.97;;;22.00;68.90;;;;;;5072625;28;20111;-80
2023/07/08 02:17:53;;;;;;;9.55;4.80;;;22.00;68.90;;;;;;5073015;28;20028;-80
2023/07/08 02:20:18;;;;;;;10.23;4.72;;;21.90;69.00;;;;;;5073728;28;20025;-80
2023/07/08 02:22:44;;;;;;;7.38;4.28;;;21.90;69.10;;;;;;5072095;28;20570;-80
2023/07/08 02:25:09;;;;;;;8.55;4.63;;;21.80;69.40;;;;;;5071736;28;20032;-79
2023/07/08 02:27:36;;;;;;;8.30;4.40;;;21.70;69.10;;;;;;5072233;28;20599;-80
2023/07/08 02:30:02;;;;;;;7.82;4.13;;;21.70;69.50;;;;;;5072757;28;20086;-80
2023/07/08 02:32:28;;;;;;;9.10;4.70;;;21.70;69.30;;;;;;5072388;28;20024;-80
2023/07/08 02:34:53;;;;;;;8.88;4.72;;;21.70;69.20;;;;;;5072885;28;20020;-80
2023/07/08 02:37:19;;;;;;;10.82;4.78;;;21.70;68.40;;;;;;5073078;28;20032;-82
2023/07/08 02:39:45;;;;;;;9.57;4.38;;;21.70;68.10;;;;;;5071406;28;20496;-81
2023/07/08 02:42:10;;;;;;;10.18;4.65;;;21.70;68.20;;;;;;5072398;28;20020;-81
2023/07/08 02:44:36;;;;;;;9.20;4.47;;;21.60;68.20;;;;;;5071367;28;20074;-81
2023/07/08 02:47:02;;;;;;;9.30;4.63;;;21.60;68.20;;;;;;5073031;28;20107;-80
2023/07/08 02:49:27;;;;;;;10.88;4.68;;;21.60;68.60;;;;;;5072245;28;20025;-84
2023/07/08 02:51:53;;;;;;;9.52;4.53;;;21.60;68.90;;;;;;5072119;28;20523;-82
2023/07/08 02:54:18;;;;;;;9.07;4.80;;;21.50;68.80;;;;;;5072235;28;20028;-80
2023/07/08 02:56:44;;;;;;;10.93;4.93;;;21.50;69.00;;;;;;5071379;28;20029;-79
2023/07/08 02:59:10;;;;;;;10.15;4.63;;;21.50;69.50;;;;;;5072298;28;20025;-80
2023/07/08 03:01:41;;;;;;;9.85;4.90;;;21.50;69.80;;;;;;5071543;28;20103;-80
2023/07/08 03:04:13;;;;;;;6.43;3.88;;;21.50;70.00;;;;;;5072333;28;20051;-80
2023/07/08 03:06:40;;;;;;;11.13;4.10;;;21.40;70.00;;;;;;5072256;28;20029;-81
2023/07/08 03:09:06;;;;;;;7.18;4.25;;;21.30;70.60;;;;;;5072423;28;20123;-79
2023/07/08 03:11:32;;;;;;;9.13;4.30;;;21.30;70.10;;;;;;5071680;28;20021;-80
2023/07/08 03:13:57;;;;;;;8.65;4.63;;;21.30;70.30;;;;;;5072616;28;20017;-81
2023/07/08 03:16:23;;;;;;;9.23;4.25;;;21.30;69.90;;;;;;5073771;28;20063;-80
2023/07/08 03:18:49;;;;;;;9.55;4.72;;;21.20;70.10;;;;;;5072311;28;20369;-82
2023/07/08 03:21:16;;;;;;;6.35;4.15;;;21.20;70.10;;;;;;5071267;28;20024;-82
2023/07/08 03:23:42;;;;;;;8.15;4.50;;;21.20;71.30;;;;;;5078517;28;20457;-80
2023/07/08 03:26:14;;;;;;;8.30;4.60;;;21.10;71.00;;;;;;5073838;28;20029;-79
2023/07/08 03:28:40;;;;;;;7.50;3.95;;;21.10;71.90;;;;;;5072047;28;20486;-80
2023/07/08 03:31:09;;;;;;;7.05;4.07;;;21.10;72.60;;;;;;5072060;28;20060;-81
2023/07/08 03:33:35;;;;;;;7.30;4.50;;;21.10;73.10;;;;;;5071249;28;20020;-79
2023/07/08 03:36:01;;;;;;;9.07;4.70;;;21.00;72.90;;;;;;5075463;28;20460;-82
2023/07/08 03:38:27;;;;;;;13.60;5.78;;;21.00;73.20;;;;;;5077360;28;20115;-83
2023/07/08 03:40:53;;;;;;;7.53;4.38;;;20.90;73.40;;;;;;5078199;28;20475;-79
2023/07/08 03:43:18;;;;;;;296.40;129.80;;;20.90;73.50;;;;;;5076127;28;20024;-79
2023/07/08 03:45:45;;;;;;;285.75;119.28;;;20.80;74.00;;;;;;5075585;28;20121;-83
2023/07/08 03:48:11;;;;;;;38.42;21.25;;;20.90;74.20;;;;;;5075466;28;20062;-81
2023/07/08 03:50:38;;;;;;;15.02;8.82;;;21.00;73.40;;;;;;5093127;28;20024;-80
2023/07/08 03:53:04;;;;;;;9.45;5.85;;;21.00;73.70;;;;;;5076196;28;20063;-79
2023/07/08 03:55:29;;;;;;;11.38;5.72;;;21.00;74.40;;;;;;5077513;28;20024;-80
2023/07/08 03:57:55;;;;;;;10.38;5.25;;;21.10;73.90;;;;;;5076855;28;20040;-81
2023/07/08 04:00:21;;;;;;;9.70;5.18;;;21.00;74.10;;;;;;5076358;28;20056;-81
2023/07/08 04:02:47;;;;;;;9.88;4.65;;;21.10;74.20;;;;;;5076210;28;20032;-80
2023/07/08 04:05:17;;;;;;;8.40;4.47;;;21.10;74.80;;;;;;5075075;28;20119;-80
2023/07/08 04:07:43;;;;;;;9.13;4.80;;;21.10;74.90;;;;;;5074636;28;20035;-80
2023/07/08 04:10:09;;;;;;;10.45;4.72;;;21.10;73.10;;;;;;5076530;28;20021;-80
2023/07/08 04:12:35;;;;;;;9.50;4.95;;;21.30;71.60;;;;;;5074222;28;20025;-80
2023/07/08 04:15:02;;;;;;;10.45;4.45;;;21.40;71.40;;;;;;5077291;28;20028;-79
2023/07/08 04:17:27;;;;;;;9.63;4.55;;;21.40;71.20;;;;;;5088565;28;20508;-80
2023/07/08 04:19:56;;;;;;;9.73;5.00;;;21.40;70.90;;;;;;5083037;28;20071;-80
2023/07/08 04:22:22;;;;;;;8.95;4.88;;;21.40;71.80;;;;;;5075136;28;20016;-80
2023/07/08 04:24:48;;;;;;;8.10;4.35;;;21.40;72.70;;;;;;5074369;28;20490;-80
2023/07/08 04:27:17;;;;;;;10.27;4.85;;;21.40;74.70;;;;;;5075051;28;20082;-80
2023/07/08 04:29:44;;;;;;;11.00;5.05;;;21.40;75.30;;;;;;5074201;28;20024;-79
2023/07/08 04:32:10;;;;;;;8.07;4.72;;;21.40;74.50;;;;;;5075822;28;20532;-80
2023/07/08 04:34:35;;;;;;;8.40;4.70;;;21.40;75.00;;;;;;5075654;28;20122;-80
2023/07/08 04:37:01;;;;;;;9.75;4.82;;;21.40;74.40;;;;;;5074927;28;20021;-78
2023/07/08 04:39:27;;;;;;;11.38;4.82;;;21.50;72.00;;;;;;5074070;28;20411;-80
2023/07/08 04:41:52;;;;;;;8.38;4.38;;;21.60;71.60;;;;;;5074999;28;20020;-79
2023/07/08 04:44:19;;;;;;;7.82;4.30;;;21.70;71.20;;;;;;5075133;28;20044;-79
2023/07/08 04:46:46;;;;;;;11.60;5.05;;;21.80;71.00;;;;;;5073155;28;20032;-80
2023/07/08 04:49:13;;;;;;;7.63;4.20;;;21.80;71.20;;;;;;5074792;28;20056;-79
2023/07/08 04:51:39;;;;;;;10.68;4.32;;;21.90;70.80;;;;;;5074087;28;20056;-79
2023/07/08 04:54:05;;;;;;;8.30;4.60;;;21.90;70.90;;;;;;5074639;28;20020;-79
2023/07/08 04:56:43;;;;;;;10.63;4.80;;;21.90;70.80;;;;;;5073897;28;20035;-80
2023/07/08 04:59:27;;;;;;;9.35;4.50;;;22.00;72.40;;;;;;5074536;28;20020;-80
2023/07/08 05:01:53;;;;;;;9.27;4.60;;;21.90;73.20;;;;;;5059583;28;20032;-80
2023/07/08 05:04:21;;;;;;;9.85;4.78;;;21.90;73.60;;;;;;5074181;28;20123;-80
2023/07/08 05:06:47;;;;;;;8.25;4.47;;;21.90;73.40;;;;;;5074496;28;20033;-79
2023/07/08 05:09:13;;;;;;;8.32;4.53;;;21.90;73.60;;;;;;5074218;28;20028;-80
2023/07/08 05:11:38;;;;;;;9.60;4.43;;;22.00;73.40;;;;;;5073962;28;20411;-81
2023/07/08 05:14:05;;;;;;;9.43;4.75;;;22.10;73.60;;;;;;5074379;28;20028;-80
2023/07/08 05:16:34;;;;;;;8.93;4.90;;;22.20;72.20;;;;;;5073549;28;20066;-80
2023/07/08 05:19:00;;;;;;;8.45;4.55;;;22.30;73.30;;;;;;5073446;28;20028;-80
2023/07/08 05:21:27;;;;;;;8.93;4.03;;;22.20;73.40;;;;;;5073083;28;20020;-80
2023/07/08 05:23:53;;;;;;;7.40;4.60;;;22.30;73.50;;;;;;5074799;28;20020;-80
2023/07/08 05:26:19;;;;;;;11.90;4.47;;;22.30;73.70;;;;;;5073586;28;20457;-79
2023/07/08 05:28:45;;;;;;;10.25;4.60;;;22.40;73.60;;;;;;5074649;28;20168;-81
2023/07/08 05:31:11;;;;;;;9.93;4.60;;;22.40;74.50;;;;;;5073719;28;20020;-80
2023/07/08 05:33:36;;;;;;;11.25;4.68;;;22.50;74.60;;;;;;5073105;28;20025;-80
2023/07/08 05:36:02;;;;;;;7.53;4.30;;;22.50;74.20;;;;;;5073706;28;20020;-80
2023/07/08 05:38:28;;;;;;;9.15;4.22;;;22.60;73.50;;;;;;5072903;28;20021;-80
2023/07/08 05:40:55;;;;;;;7.30;4.40;;;22.60;73.60;;;;;;5072640;28;20099;-81
2023/07/08 05:43:21;;;;;;;11.73;4.47;;;22.70;73.30;;;;;;5074386;28;20104;-81
2023/07/08 05:45:47;;;;;;;9.43;4.30;;;22.70;73.60;;;;;;5073680;28;20080;-80
2023/07/08 05:48:13;;;;;;;7.25;4.05;;;22.80;73.40;;;;;;5073318;28;20457;-81
2023/07/08 05:50:39;;;;;;;8.77;4.10;;;22.90;73.50;;;;;;5074030;28;20445;-81
2023/07/08 05:53:05;;;;;;;7.43;4.25;;;23.00;73.40;;;;;;5074034;28;20095;-81
2023/07/08 05:55:32;;;;;;;10.18;4.15;;;23.10;73.90;;;;;;5073701;28;20469;-80
2023/07/08 05:57:58;;;;;;;8.90;4.25;;;23.10;73.90;;;;;;5072859;28;20029;-80
2023/07/08 06:00:23;;;;;;;10.13;4.07;;;23.20;74.70;;;;;;5072478;28;20111;-81
2023/07/08 06:02:49;;;;;;;9.77;4.25;;;23.20;74.70;;;;;;5073439;28;20099;-81
2023/07/08 06:05:14;;;;;;;8.10;3.97;;;23.20;75.40;;;;;;5072950;28;20020;-81
2023/07/08 06:07:40;;;;;;;6.65;4.00;;;23.10;76.20;;;;;;5072702;28;20070;-82
2023/07/08 06:10:06;;;;;;;8.57;3.42;;;23.20;76.90;;;;;;5073551;28;20471;-81
2023/07/08 06:12:32;;;;;;;7.78;3.67;;;23.20;77.40;;;;;;5072980;28;20020;-81
2023/07/08 06:14:58;;;;;;;7.43;4.38;;;23.20;77.30;;;;;;5073458;28;20437;-81
2023/07/08 06:17:23;;;;;;;9.43;4.57;;;23.20;75.90;;;;;;5072915;28;20104;-81
2023/07/08 06:19:49;;;;;;;8.75;4.47;;;23.20;75.70;;;;;;5072255;28;20028;-81
2023/07/08 06:22:14;;;;;;;8.35;3.97;;;23.30;74.70;;;;;;5073618;28;20100;-81
2023/07/08 06:24:40;;;;;;;7.80;4.35;;;23.30;73.70;;;;;;5072356;28;20547;-83
2023/07/08 06:27:06;;;;;;;11.30;4.45;;;23.30;73.50;;;;;;5072735;28;20036;-81
2023/07/08 06:29:34;;;;;;;9.55;4.30;;;23.30;73.20;;;;;;5072154;28;20078;-80
2023/07/08 06:31:59;;;;;;;8.77;4.18;;;23.30;73.20;;;;;;5072092;28;20044;-81
2023/07/08 06:34:25;;;;;;;6.65;4.30;;;23.30;73.30;;;;;;5072628;28;20105;-80
2023/07/08 06:36:51;;;;;;;7.03;3.70;;;23.30;73.70;;;;;;5072487;28;20097;-80
2023/07/08 06:39:17;;;;;;;8.48;3.95;;;23.30;74.20;;;;;;5072550;28;20029;-81
2023/07/08 06:41:43;;;;;;;8.27;3.97;;;23.40;74.20;;;;;;5071755;28;20470;-81
2023/07/08 06:44:09;;;;;;;9.90;4.03;;;23.50;74.40;;;;;;5072457;28;20051;-80
2023/07/08 06:46:35;;;;;;;9.85;3.88;;;23.50;74.60;;;;;;5072008;28;20028;-81
2023/07/08 06:49:00;;;;;;;6.30;3.72;;;23.50;74.80;;;;;;5072364;28;20094;-81
2023/07/08 06:51:26;;;;;;;6.22;3.65;;;23.50;74.90;;;;;;5078344;28;20476;-80
2023/07/08 06:53:52;;;;;;;6.30;3.72;;;23.60;75.00;;;;;;5076444;28;20103;-80
2023/07/08 06:56:17;;;;;;;8.10;4.20;;;23.60;75.20;;;;;;5071298;28;20115;-79
2023/07/08 06:58:43;;;;;;;5.43;3.25;;;23.60;75.50;;;;;;5072245;28;20060;-79
2023/07/08 07:01:09;;;;;;;7.25;3.40;;;23.60;77.40;;;;;;5071283;28;20078;-80
2023/07/08 07:03:34;;;;;;;6.10;3.40;;;23.60;78.00;;;;;;5072402;28;20020;-81
2023/07/08 07:06:00;;;;;;;8.10;3.13;;;23.70;78.70;;;;;;5071550;28;20025;-81
2023/07/08 07:08:25;;;;;;;6.00;3.35;;;23.80;79.20;;;;;;5071695;28;20476;-82
2023/07/08 07:10:51;;;;;;;5.90;3.20;;;23.80;79.40;;;;;;5071365;28;20056;-81
2023/07/08 07:13:16;;;;;;;7.90;3.28;;;23.90;79.60;;;;;;5072611;28;20023;-81
2023/07/08 07:15:42;;;;;;;6.72;3.42;;;23.90;79.90;;;;;;5071187;28;20021;-80
2023/07/08 07:18:08;;;;;;;10.80;4.07;;;23.90;80.20;;;;;;5071588;28;20370;-80
2023/07/08 07:20:37;;;;;;;5.60;3.17;;;24.00;80.80;;;;;;5070312;28;20024;-79
2023/07/08 07:23:03;;;;;;;5.78;3.22;;;24.00;81.80;;;;;;5070914;28;20419;-78
2023/07/08 07:25:29;;;;;;;4.60;2.70;;;24.00;83.00;;;;;;5058781;28;20458;-78
2023/07/08 07:27:54;;;;;;;5.78;2.70;;;24.00;83.40;;;;;;5070888;28;20066;-78
2023/07/08 07:30:20;;;;;;;4.30;2.47;;;24.10;84.50;;;;;;5070574;28;20078;-80
2023/07/08 07:32:46;;;;;;;6.38;2.20;;;24.10;85.10;;;;;;5070750;28;20052;-82
2023/07/08 07:35:14;;;;;;;4.63;1.52;;;24.20;85.10;;;;;;5072689;28;20335;-80
2023/07/08 07:37:41;;;;;;;8.00;2.10;;;24.20;85.30;;;;;;5070793;28;20064;-79
2023/07/08 07:40:12;;;;;;;4.28;2.00;;;24.20;85.00;;;;;;5071809;28;20523;-81
2023/07/08 07:42:42;;;;;;;9.15;2.05;;;24.30;85.20;;;;;;5069813;28;20021;-82
2023/07/08 07:45:09;;;;;;;2.78;1.75;;;24.20;85.30;;;;;;5070926;28;20080;-81
2023/07/08 07:47:35;;;;;;;3.30;1.67;;;24.20;84.80;;;;;;5070355;28;20105;-80
2023/07/08 07:50:02;;;;;;;5.47;1.70;;;24.30;84.50;;;;;;5072360;28;20522;-80
2023/07/08 07:52:27;;;;;;;7.80;1.80;;;24.30;83.90;;;;;;5070185;28;20017;-80
2023/07/08 07:54:54;;;;;;;3.53;1.60;;;24.30;84.30;;;;;;5077769;28;20024;-81
2023/07/08 07:57:21;;;;;;;4.60;1.90;;;24.40;84.10;;;;;;5073644;28;20350;-81
2023/07/08 07:59:48;;;;;;;4.50;1.90;;;24.40;83.20;;;;;;5072234;28;20032;-80
2023/07/08 08:02:14;;;;;;;4.47;1.88;;;24.40;84.50;;;;;;5073220;28;20025;-81
2023/07/08 08:04:40;;;;;;;3.15;1.60;;;24.50;84.00;;;;;;5072050;28;20017;-82
2023/07/08 08:07:06;;;;;;;3.53;1.75;;;24.50;84.20;;;;;;5071025;28;20030;-81
2023/07/08 08:09:31;;;;;;;4.85;1.40;;;24.60;83.20;;;;;;5070735;28;20052;-81
2023/07/08 08:11:57;;;;;;;2.28;1.48;;;24.70;83.90;;;;;;5072280;28;20032;-80
2023/07/08 08:14:22;;;;;;;3.33;1.42;;;24.70;82.20;;;;;;5071336;28;20116;-80
2023/07/08 08:16:48;;;;;;;4.65;1.80;;;24.80;81.00;;;;;;5070875;28;20031;-81
2023/07/08 08:19:14;;;;;;;2.22;1.60;;;24.90;80.90;;;;;;5072176;28;20017;-81
2023/07/08 08:21:39;;;;;;;5.35;1.63;;;24.90;80.80;;;;;;5070644;28;20090;-80
2023/07/08 08:24:05;;;;;;;4.50;0.93;;;24.90;79.60;;;;;;5072098;28;20027;-81
2023/07/08 08:26:31;;;;;;;4.35;1.40;;;25.00;78.80;;;;;;5072347;28;20020;-81
2023/07/08 08:28:57;;;;;;;5.03;1.70;;;25.00;78.40;;;;;;5075497;28;20134;-81
2023/07/08 08:31:22;;;;;;;2.92;1.25;;;25.10;77.60;;;;;;5074269;28;20028;-80
2023/07/08 08:33:48;;;;;;;6.95;1.50;;;25.10;79.40;;;;;;5073014;28;20025;-80
2023/07/08 08:36:13;;;;;;;3.10;1.35;;;25.10;79.60;;;;;;5074644;28;20020;-80
2023/07/08 08:38:39;;;;;;;4.13;1.40;;;25.10;79.30;;;;;;5074056;28;20016;-81
2023/07/08 08:41:12;;;;;;;3.13;1.25;;;25.10;79.70;;;;;;5073734;28;20523;-80
2023/07/08 08:43:39;;;;;;;5.35;1.48;;;25.20;80.10;;;;;;5074347;28;20476;-82
2023/07/08 08:46:23;;;;;;;3.60;1.30;;;25.20;79.50;;;;;;5075113;28;20027;-81
2023/07/08 08:49:04;;;;;;;4.95;1.50;;;25.20;80.00;;;;;;5075059;28;20028;-81
2023/07/08 08:51:32;;;;;;;5.47;1.27;;;25.30;79.80;;;;;;5073999;28;20032;-81
2023/07/08 08:53:58;;;;;;;1.65;1.00;;;25.30;79.70;;;;;;5073917;28;20024;-81
2023/07/08 08:56:30;;;;;;;3.00;1.17;;;25.40;78.20;;;;;;5075146;28;20032;-81
2023/07/08 08:59:09;;;;;;;3.03;0.90;;;25.40;77.70;;;;;;5075192;28;20024;-81
2023/07/08 09:01:34;;;;;;;2.60;1.00;;;25.50;76.30;;;;;;5074299;28;20399;-83
2023/07/08 09:04:06;;;;;;;2.15;0.90;;;25.50;76.90;;;;;;5073845;28;20025;-83
2023/07/08 09:06:34;;;;;;;;;;;25.60;76.30;;;;;;5073953;28;20111;-83
2023/07/08 09:09:30;;;;;;;3.05;1.13;;;25.70;73.70;;;;;;5074317;28;19904;-83
2023/07/08 09:12:18;;;;;;;1.67;1.10;;;25.70;72.90;;;;;;5063575;28;20017;-83
2023/07/08 09:14:44;;;;;;;2.60;0.90;;;25.70;72.50;;;;;;5074404;28;20120;-82
2023/07/08 09:17:15;;;;;;;1.08;0.70;;;25.90;70.90;;;;;;5073861;28;20400;-82
2023/07/08 09:20:03;;;;;;;1.83;1.00;;;25.90;70.90;;;;;;5073168;28;20025;-82
2023/07/08 09:22:56;;;;;;;2.70;1.15;;;25.90;71.80;;;;;;5072232;28;20040;-81
2023/07/08 09:25:37;;;;;;;1.60;0.70;;;26.10;72.40;;;;;;5071784;28;20025;-83
2023/07/08 09:28:03;;;;;;;2.50;0.95;;;26.10;72.70;;;;;;5070763;28;20063;-82
2023/07/08 09:30:30;;;;;;;2.22;0.95;;;26.10;72.90;;;;;;5074940;28;20474;-81
2023/07/08 09:32:56;;;;;;;2.13;1.05;;;26.10;73.60;;;;;;5073378;28;20020;-82
2023/07/08 09:35:25;;;;;;;1.83;1.08;;;26.30;73.00;;;;;;5074675;28;20093;-81
2023/07/08 09:37:51;;;;;;;1.38;0.90;;;26.30;73.00;;;;;;5073494;28;20021;-82
2023/07/08 09:40:21;;;;;;;3.70;1.23;;;26.30;73.00;;;;;;5073724;28;20027;-81
2023/07/08 09:42:51;;;;;;;2.22;0.93;;;26.30;73.60;;;;;;5072712;28;20036;-83
2023/07/08 09:45:23;;;;;;;2.25;0.85;;;26.40;72.10;;;;;;5053555;28;20049;-82
2023/07/08 09:47:53;;;;;;;4.30;0.90;;;26.50;70.10;;;;;;5061977;28;20028;-82
2023/07/08 09:50:21;;;;;;;2.08;0.95;;;26.40;70.30;;;;;;5074703;28;20031;-82
2023/07/08 09:52:48;;;;;;;3.95;1.17;;;26.50;71.10;;;;;;5073357;28;20036;-82
2023/07/08 09:55:14;;;;;;;1.73;1.00;;;26.40;71.00;;;;;;5073132;28;20496;-80
2023/07/08 09:57:42;;;;;;;4.68;1.42;;;26.40;70.80;;;;;;5073016;28;20024;-83
2023/07/08 10:00:13;;;;;;;2.05;1.30;;;26.40;71.10;;;;;;5073964;28;20016;-81
2023/07/08 10:02:52;;;;;;;3.90;1.10;;;26.50;70.90;;;;;;5073488;28;20027;-82
2023/07/08 10:05:27;;;;;;;2.55;0.90;;;26.50;70.10;;;;;;5055641;28;20021;-80
2023/07/08 10:07:55;;;;;;;2.13;0.98;;;26.60;70.50;;;;;;5053328;28;20031;-83
2023/07/08 10:10:31;;;;;;;2.70;1.13;;;26.50;70.60;;;;;;5053892;28;20494;-81
2023/07/08 10:13:00;;;;;;;2.58;1.20;;;26.60;69.60;;;;;;5070283;28;20020;-81
2023/07/08 10:15:52;;;;;;;2.97;1.02;;;26.60;70.30;;;;;;5071994;28;20043;-80
2023/07/08 10:18:27;;;;;;;3.38;1.30;;;26.70;70.50;;;;;;5071757;28;20094;-81
2023/07/08 10:21:04;;;;;;;2.10;1.20;;;26.70;69.80;;;;;;5072693;28;20107;-82
2023/07/08 10:23:45;;;;;;;4.75;1.20;;;26.70;70.70;;;;;;5072151;28;20028;-82
2023/07/08 10:26:22;;;;;;;2.65;1.20;;;26.80;70.80;;;;;;5073650;28;20031;-82
2023/07/08 10:29:18;;;;;;;3.88;1.35;;;26.80;70.70;;;;;;5072434;28;20127;-79
2023/07/08 10:32:03;;;;;;;2.15;1.27;;;26.90;70.80;;;;;;5072235;28;20023;-80
2023/07/08 10:35:02;;;;;;;3.03;1.55;;;26.90;70.70;;;;;;5073579;28;20016;-82
2023/07/08 10:37:45;;;;;;;5.40;1.90;;;26.90;70.80;;;;;;5070971;28;20033;-82
2023/07/08 10:40:19;;;;;;;3.00;1.50;;;26.90;70.70;;;;;;5072515;28;20028;-80
2023/07/08 10:43:15;;;;;;;2.17;1.17;;;26.90;71.30;;;;;;5071941;28;20024;-81
2023/07/08 10:45:52;;;;;;;3.70;1.27;;;26.90;72.20;;;;;;5071157;28;20116;-80
2023/07/08 10:48:29;;;;;;;3.05;1.20;;;27.00;72.40;;;;;;5072870;28;20468;-80
2023/07/08 10:51:25;;;;;;;3.75;1.70;;;27.00;71.90;;;;;;5071719;28;20036;-81
2023/07/08 10:54:10;;;;;;;3.58;1.50;;;27.00;72.30;;;;;;5070704;28;20024;-81
2023/07/08 10:57:01;;;;;;;3.08;1.30;;;27.00;72.70;;;;;;5066173;28;20058;-80
2023/07/08 10:59:45;;;;;;;4.53;1.80;;;27.10;73.80;;;;;;5071626;28;20032;-79
2023/07/08 11:02:31;;;;;;;2.85;1.20;;;27.10;73.10;;;;;;5072177;28;20464;-79
2023/07/08 11:05:14;;;;;;;7.95;1.85;;;27.10;73.00;;;;;;5071489;28;20024;-78
2023/07/08 11:07:50;;;;;;;3.83;1.30;;;27.10;72.90;;;;;;5071195;28;20025;-78
2023/07/08 11:10:22;;;;;;;2.97;1.02;;;27.20;73.70;;;;;;5072174;28;20027;-78
2023/07/08 11:12:54;;;;;;;3.42;1.40;;;27.20;73.40;;;;;;5071323;28;20108;-78
2023/07/08 11:15:23;;;;;;;4.93;1.90;;;27.20;72.80;;;;;;5070987;28;20016;-78
2023/07/08 11:18:01;;;;;;;3.63;1.40;;;27.30;73.20;;;;;;5070291;28;20032;-77
2023/07/08 11:20:39;;;;;;;4.40;1.50;;;27.30;73.50;;;;;;5071989;28;20396;-77
2023/07/08 11:23:27;;;;;;;2.92;1.40;;;27.40;73.90;;;;;;5070551;28;20086;-77
2023/07/08 11:26:05;;;;;;;2.13;1.35;;;27.50;74.00;;;;;;5065570;28;20025;-77
2023/07/08 11:28:30;;;;;;;2.85;1.58;;;27.60;72.90;;;;;;5070090;28;20051;-79
2023/07/08 11:31:00;;;;;;;3.28;1.10;;;27.60;72.80;;;;;;5070071;28;20381;-78
2023/07/08 11:33:27;;;;;;;2.60;1.40;;;27.60;72.00;;;;;;5070035;28;20020;-77
2023/07/08 11:35:58;;;;;;;2.17;1.50;;;27.70;71.10;;;;;;5070091;28;20028;-80
2023/07/08 11:38:24;;;;;;;2.65;1.55;;;27.70;71.30;;;;;;5072793;28;20036;-82
2023/07/08 11:40:57;;;;;;;2.45;1.50;;;27.80;69.90;;;;;;5070811;28;20217;-80
2023/07/08 11:43:27;;;;;;;5.05;1.73;;;27.80;69.10;;;;;;5070021;28;20024;-82
2023/07/08 11:45:57;;;;;;;4.00;1.77;;;27.90;69.00;;;;;;5070056;28;20124;-79
2023/07/08 11:48:23;;;;;;;3.77;1.50;;;27.90;69.40;;;;;;5070934;28;20036;-81
2023/07/08 11:50:51;;;;;;;2.70;1.33;;;27.90;68.50;;;;;;5070380;28;20020;-79
2023/07/08 11:53:29;;;;;;;2.40;1.50;;;28.00;68.10;;;;;;5071049;28;20024;-83
2023/07/08 11:56:04;;;;;;;5.28;2.13;;;28.00;68.80;;;;;;5070460;28;20101;-80
2023/07/08 11:58:46;;;;;;;6.35;1.63;;;28.10;68.40;;;;;;5074896;28;20040;-80
2023/07/08 12:01:11;;;;;;;3.40;1.50;;;28.10;67.90;;;;;;5075323;28;20522;-82
2023/07/08 12:03:46;;;;;;;5.53;2.03;;;28.20;69.40;;;;;;5073803;28;20060;-80
2023/07/08 12:06:27;;;;;;;5.57;1.70;;;28.20;66.90;;;;;;5074794;28;20012;-81
2023/07/08 12:08:54;;;;;;;4.07;1.90;;;28.20;67.00;;;;;;5068087;28;20417;-82
2023/07/08 12:11:32;;;;;;;3.42;2.22;;;28.20;67.20;;;;;;5078921;28;20377;-82
2023/07/08 12:14:03;;;;;;;4.88;2.10;;;28.30;67.00;;;;;;5075566;28;20158;-81
2023/07/08 12:16:31;;;;;;;5.15;2.00;;;28.30;66.00;;;;;;5059459;28;20447;-80
2023/07/08 12:19:00;;;;;;;4.18;2.00;;;28.40;66.20;;;;;;5075123;28;20551;-79
2023/07/08 12:21:27;;;;;;;4.45;2.25;;;28.40;66.10;;;;;;5074577;28;20021;-80
2023/07/08 12:23:54;;;;;;;3.80;1.67;;;28.50;66.00;;;;;;5073661;28;20028;-80
2023/07/08 12:26:21;;;;;;;5.03;1.80;;;28.50;66.50;;;;;;5074546;28;20021;-80
2023/07/08 12:28:47;;;;;;;5.43;2.15;;;28.60;65.80;;;;;;5075201;28;20029;-80
2023/07/08 12:31:19;;;;;;;3.75;2.17;;;28.60;66.20;;;;;;5073448;28;20346;-79
2023/07/08 12:33:46;;;;;;;3.80;2.00;;;28.60;66.10;;;;;;5068175;28;20020;-79
2023/07/08 12:36:21;;;;;;;3.80;1.75;;;28.70;68.90;;;;;;5075428;28;20449;-78
2023/07/08 12:38:48;;;;;;;6.03;2.55;;;28.80;66.40;;;;;;5074295;28;20331;-80
2023/07/08 12:41:22;;;;;;;3.42;1.90;;;28.80;68.40;;;;;;5074111;28;20024;-79
2023/07/08 12:43:47;;;;;;;4.47;1.90;;;28.90;68.60;;;;;;5053241;28;20191;-79
2023/07/08 12:46:15;;;;;;;4.28;2.30;;;29.00;66.90;;;;;;5073578;28;20454;-81
2023/07/08 12:48:41;;;;;;;5.10;2.13;;;29.10;66.30;;;;;;5073986;28;20786;-81
2023/07/08 12:51:13;;;;;;;6.53;2.58;;;29.10;65.80;;;;;;5075348;28;20024;-79
2023/07/08 12:53:38;;;;;;;4.03;2.17;;;29.10;64.90;;;;;;5074540;28;20021;-78
2023/07/08 12:56:04;;;;;;;3.60;2.22;;;29.20;64.80;;;;;;5073482;28;20067;-78